Time;durP1;ratioP1;P1;durP2;ratioP2;P2;SDS_P1;SDS_P2;PMS_P1;PMS_P2;Temp;Humidity;BMP_temperature;BMP_pressure;BME280_temperature;BME280_humidity;BME280_pressure;Samples;Min_cycle;Max_cycle;Signal;HPM_P1;HPM_P2
2023/10/18 00:00:58;;;;;;;;;;;;;;;10.47;49.92;100965.91;4985511;27;98041;-68
2023/10/18 00:03:31;;;;;;;;;;;;;;;10.44;49.91;100963.69;4996961;27;99573;-69
2023/10/18 00:05:59;;;;;;;;;;;;;;;10.40;49.70;100959.88;4998358;27;98060;-63
2023/10/18 00:08:25;;;;;;;;;;;;;;;10.36;50.11;100964.97;5013081;27;98208;-63
2023/10/18 00:10:55;;;;;;;;;;;;;;;10.34;49.95;100958.22;4983104;27;98629;-64
2023/10/18 00:13:24;;;;;;;;;;;;;;;10.32;50.24;100961.16;4977844;27;98387;-63
2023/10/18 00:15:53;;;;;;;;;;;;;;;10.29;49.96;100954.38;4999016;27;98361;-68
2023/10/18 00:18:20;;;;;;;;;;;;;;;10.28;50.16;100960.84;4995210;27;97972;-69
2023/10/18 00:20:47;;;;;;;;;;;;;;;10.26;50.05;100962.19;5012193;27;98475;-63
2023/10/18 00:23:13;;;;;;;;;;;;;;;10.24;50.18;100959.69;4998789;27;99712;-69
2023/10/18 00:25:39;;;;;;;;;;;;;;;10.21;49.78;100973.66;4996225;27;103225;-69
2023/10/18 00:28:08;;;;;;;;;;;;;;;10.19;50.06;100970.41;5015098;27;126777;-64
2023/10/18 00:30:35;;;;;;;;;;;;;;;10.17;49.89;100963.66;4999477;27;99663;-63
2023/10/18 00:33:03;;;;;;;;;;;;;;;10.16;50.17;100964.72;4979659;27;98281;-69
2023/10/18 00:35:31;;;;;;;;;;;;;;;10.13;50.07;100970.59;4980137;27;98708;-68
2023/10/18 00:37:58;;;;;;;;;;;;;;;10.12;49.68;100969.78;5012080;27;98176;-63
2023/10/18 00:43:16;;;;;;;;;;;;;;;10.08;49.82;100963.28;4986380;27;98254;-69
2023/10/18 00:45:47;;;;;;;;;;;;;;;10.03;49.91;100969.44;4980010;27;98737;-64
2023/10/18 00:48:14;;;;;;;;;;;;;;;10.03;49.58;100968.63;4981073;27;98275;-69
2023/10/18 00:50:43;;;;;;;;;;;;;;;10.01;50.22;100962.66;4997435;27;98747;-63
2023/10/18 00:53:25;;;;;;;;;;;;;;;10.01;50.27;100957.28;4997692;27;98647;-64
2023/10/18 00:55:59;;;;;;;;;;;;;;;9.98;49.82;100955.91;4986791;27;98054;-63
2023/10/18 00:58:27;;;;;;;;;;;;;;;9.95;50.01;100953.72;4967515;27;99969;-63
2023/10/18 01:00:54;;;;;;;;;;;;;;;9.95;49.94;100942.94;4981456;27;98432;-68
2023/10/18 01:03:30;;;;;;;;;;;;;;;9.94;49.68;100940.47;4976890;27;98160;-68
2023/10/18 01:06:08;;;;;;;;;;;;;;;9.91;49.62;100938.31;4986424;27;98334;-62
2023/10/18 01:08:38;;;;;;;;;;;;;;;9.90;49.71;100939.34;4998476;27;97918;-62
2023/10/18 01:11:08;;;;;;;;;;;;;;;9.89;49.72;100926.97;4990168;27;97933;-69
2023/10/18 01:13:42;;;;;;;;;;;;;;;9.88;49.39;100928.03;4983188;27;98776;-64
2023/10/18 01:16:15;;;;;;;;;;;;;;;9.86;49.99;100917.50;5012971;27;99559;-69
2023/10/18 01:18:47;;;;;;;;;;;;;;;9.84;50.05;100920.47;5015395;27;98310;-70
2023/10/18 01:21:14;;;;;;;;;;;;;;;9.83;49.82;100915.34;4983286;27;100393;-69
2023/10/18 01:23:54;;;;;;;;;;;;;;;9.81;49.89;100904.00;4976826;27;98463;-70
2023/10/18 01:26:21;;;;;;;;;;;;;;;9.81;50.49;100907.50;4995979;27;98073;-70
2023/10/18 01:28:47;;;;;;;;;;;;;;;9.80;49.90;100899.69;4996890;27;98695;-70
2023/10/18 01:31:14;;;;;;;;;;;;;;;9.80;49.81;100905.06;4981535;27;117775;-64
2023/10/18 01:33:44;;;;;;;;;;;;;;;9.78;50.40;100905.28;5007876;27;98479;-69
2023/10/18 01:36:14;;;;;;;;;;;;;;;9.79;49.99;100898.06;4998534;27;101130;-69
2023/10/18 01:38:52;;;;;;;;;;;;;;;9.78;50.00;100896.41;4997842;27;97906;-70
2023/10/18 01:41:33;;;;;;;;;;;;;;;9.78;49.49;100905.28;4982523;27;100183;-70
2023/10/18 01:44:11;;;;;;;;;;;;;;;9.77;49.74;100902.88;4988865;27;98472;-69
2023/10/18 01:47:05;;;;;;;;;;;;;;;9.77;49.57;100902.88;4988130;27;98386;-70
2023/10/18 01:49:25;;;;;;;;;;;;;;;9.75;49.91;100897.75;5014929;27;98087;-70
2023/10/18 01:51:54;;;;;;;;;;;;;;;9.75;49.66;100899.63;4986970;27;98030;-69
2023/10/18 01:54:24;;;;;;;;;;;;;;;9.74;49.93;100897.97;4982696;27;98205;-69
2023/10/18 01:56:53;;;;;;;;;;;;;;;9.72;49.80;100895.56;5016270;27;99549;-68
2023/10/18 01:59:24;;;;;;;;;;;;;;;9.72;50.44;100900.94;4982982;27;98779;-64
2023/10/18 02:01:53;;;;;;;;;;;;;;;9.71;49.80;100895.81;4998904;27;99048;-63
2023/10/18 02:04:31;;;;;;;;;;;;;;;9.71;49.70;100895.81;4987995;27;98255;-63
2023/10/18 02:06:59;;;;;;;;;;;;;;;9.69;49.34;100893.34;5000100;27;98963;-69
2023/10/18 02:09:52;;;;;;;;;;;;;;;9.65;50.07;100889.53;4985700;27;98177;-64
2023/10/18 02:12:21;;;;;;;;;;;;;;;9.67;49.54;100892.81;4970648;27;98390;-69
2023/10/18 02:14:51;;;;;;;;;;;;;;;9.66;50.16;100882.28;4986943;27;98079;-69
2023/10/18 02:17:21;;;;;;;;;;;;;;;9.64;50.14;100879.84;4983468;27;98063;-69
2023/10/18 02:19:48;;;;;;;;;;;;;;;9.63;50.12;100867.44;4967414;27;98966;-69
2023/10/18 02:22:18;;;;;;;;;;;;;;;9.62;50.05;100871.19;4971494;27;98115;-64
2023/10/18 02:24:44;;;;;;;;;;;;;;;9.62;50.41;100870.38;5008707;27;98155;-69
2023/10/18 02:27:15;;;;;;;;;;;;;;;9.59;49.54;100859.06;5017805;27;100150;-63
2023/10/18 02:29:42;;;;;;;;;;;;;;;9.57;49.67;100855.78;4966713;27;98692;-69
2023/10/18 02:34:53;;;;;;;;;;;;;;;9.54;50.48;100856.28;4984857;27;100056;-63
2023/10/18 02:37:20;;;;;;;;;;;;;;;9.55;50.34;100854.44;5001219;27;98904;-63
2023/10/18 02:39:46;;;;;;;;;;;;;;;9.52;49.55;100855.75;4971970;27;98364;-69
2023/10/18 02:42:13;;;;;;;;;;;;;;;9.54;50.04;100856.28;4986707;27;99076;-63
2023/10/18 02:44:42;;;;;;;;;;;;;;;9.59;49.83;100869.03;4989256;27;97954;-63
2023/10/18 02:47:29;;;;;;;;;;;;;;;9.65;49.82;100861.81;4968741;27;98185;-69
2023/10/18 02:49:55;;;;;;;;;;;;;;;9.70;50.03;100875.31;4993084;27;99798;-69
2023/10/18 02:52:22;;;;;;;;;;;;;;;9.73;49.43;100867.56;4988541;27;97896;-64
2023/10/18 02:54:48;;;;;;;;;;;;;;;9.76;49.64;100864.38;5002555;27;98267;-69
2023/10/18 02:57:15;;;;;;;;;;;;;;;9.78;49.88;100861.41;4966043;27;98309;-69
2023/10/18 02:59:43;;;;;;;;;;;;;;;9.79;50.06;100863.06;5019213;27;98015;-63
2023/10/18 03:02:15;;;;;;;;;;;;;;;9.80;49.70;100860.09;4998471;27;97922;-68
2023/10/18 03:04:47;;;;;;;;;;;;;;;9.81;50.46;100855.53;5014905;27;98089;-63
2023/10/18 03:07:13;;;;;;;;;;;;;;;9.80;49.82;100856.59;4998796;27;98238;-63
2023/10/18 03:09:40;;;;;;;;;;;;;;;9.80;50.02;100854.72;4983637;27;98617;-64
2023/10/18 03:12:16;;;;;;;;;;;;;;;9.80;49.71;100856.59;4965109;27;97928;-63
2023/10/18 03:15:08;;;;;;;;;;;;;;;9.79;50.07;100853.09;4990560;27;100384;-69
2023/10/18 03:17:32;;;;;;;;;;;;;;;9.77;49.98;100851.72;5001697;27;99958;-64
2023/10/18 03:19:58;;;;;;;;;;;;;;;9.77;50.14;100849.84;4969034;27;97881;-63
2023/10/18 03:22:32;;;;;;;;;;;;;;;9.76;49.95;100858.97;4980413;27;98787;-64
2023/10/18 03:25:01;;;;;;;;;;;;;;;9.75;49.57;100853.84;4986813;27;97854;-69
2023/10/18 03:27:30;;;;;;;;;;;;;;;9.73;50.12;100854.09;4984411;27;98357;-63
2023/10/18 03:30:11;;;;;;;;;;;;;;;9.72;50.03;100849.78;4964558;27;99298;-63
2023/10/18 03:32:38;;;;;;;;;;;;;;;9.72;50.33;100846.28;4986518;27;99011;-69
2023/10/18 03:35:08;;;;;;;;;;;;;;;9.69;50.47;100844.91;4998815;27;99414;-69
2023/10/18 03:37:36;;;;;;;;;;;;;;;9.70;49.69;100851.09;4988102;27;100302;-69
2023/10/18 03:40:17;;;;;;;;;;;;;;;9.68;50.20;100850.53;4970189;27;100431;-69
2023/10/18 03:42:45;;;;;;;;;;;;;;;9.67;50.19;100852.44;5004021;27;98321;-63
2023/10/18 03:45:11;;;;;;;;;;;;;;;9.66;49.75;100841.91;4980164;27;98194;-63
2023/10/18 03:47:38;;;;;;;;;;;;;;;9.65;50.50;100848.34;4987891;27;101374;-69
2023/10/18 03:50:28;;;;;;;;;;;;;;;9.64;50.12;100844.03;5003426;27;98077;-69
2023/10/18 03:52:57;;;;;;;;;;;;;;;9.62;49.81;100840.78;4989729;27;98209;-63
2023/10/18 03:55:36;;;;;;;;;;;;;;;9.59;49.86;100842.09;4982470;27;99563;-63
2023/10/18 03:58:04;;;;;;;;;;;;;;;9.58;50.23;100843.16;4969796;27;99591;-63
2023/10/18 04:00:39;;;;;;;;;;;;;;;9.57;49.80;100831.56;5001629;27;98355;-63
2023/10/18 04:03:10;;;;;;;;;;;;;;;9.55;50.11;100827.53;4983525;27;98022;-64
2023/10/18 04:05:45;;;;;;;;;;;;;;;9.55;49.70;100830.22;5000419;27;97990;-69
2023/10/18 04:08:16;;;;;;;;;;;;;;;9.53;50.04;100824.25;4994982;27;97836;-67
2023/10/18 04:10:46;;;;;;;;;;;;;;;9.50;50.06;100814.78;5000429;27;98336;-69
2023/10/18 04:13:13;;;;;;;;;;;;;;;9.49;49.53;100826.63;4964545;27;100338;-64
2023/10/18 04:15:45;;;;;;;;;;;;;;;9.49;49.86;100818.56;4999708;27;97960;-69
2023/10/18 04:18:12;;;;;;;;;;;;;;;9.47;49.68;100823.41;4981278;27;98332;-69
2023/10/18 04:20:42;;;;;;;;;;;;;;;9.45;50.03;100822.81;4999627;27;100388;-63
2023/10/18 04:23:15;;;;;;;;;;;;;;;9.44;50.42;100809.63;4981348;27;99792;-63
2023/10/18 04:25:42;;;;;;;;;;;;;;;9.43;49.93;100814.19;4968422;27;98097;-69
2023/10/18 04:28:10;;;;;;;;;;;;;;;9.42;50.13;100815.25;4974573;27;98955;-69
2023/10/18 04:30:38;;;;;;;;;;;;;;;9.41;50.16;100802.88;4964239;27;98042;-69
2023/10/18 04:36:13;;;;;;;;;;;;;;;9.38;50.29;100806.06;4984411;27;98050;-63
2023/10/18 04:38:43;;;;;;;;;;;;;;;9.37;49.99;100795.53;4988032;27;99751;-69
2023/10/18 04:41:10;;;;;;;;;;;;;;;9.35;49.83;100795.78;4980066;27;99410;-68
2023/10/18 04:43:38;;;;;;;;;;;;;;;9.34;49.79;100805.72;4992842;27;99263;-69
2023/10/18 04:46:14;;;;;;;;;;;;;;;9.33;49.74;100797.94;4987990;27;98227;-69
2023/10/18 04:54:03;;;;;;;;;;;;;;;9.27;49.81;100778.19;4981990;27;98271;-69
2023/10/18 04:56:34;;;;;;;;;;;;;;;9.27;49.80;100780.09;4974721;27;98312;-69
2023/10/18 04:59:06;;;;;;;;;;;;;;;9.26;49.80;100784.66;4996381;27;98147;-63
2023/10/18 05:01:36;;;;;;;;;;;;;;;9.25;49.89;100782.22;4980314;27;98535;-69
2023/10/18 05:07:15;;;;;;;;;;;;;;;9.23;49.59;100778.97;4975411;27;98120;-69
2023/10/18 05:09:42;;;;;;;;;;;;;;;9.22;50.05;100780.03;4995160;27;99507;-68
2023/10/18 05:14:54;;;;;;;;;;;;;;;9.20;50.33;100785.66;5008447;27;98052;-69
2023/10/18 05:17:23;;;;;;;;;;;;;;;9.20;50.09;100785.66;4967361;27;98138;-63
2023/10/18 05:19:50;;;;;;;;;;;;;;;9.19;49.34;100789.41;4982516;27;98143;-69
2023/10/18 05:22:20;;;;;;;;;;;;;;;9.19;49.97;100786.72;4964357;27;99538;-64
2023/10/18 05:24:54;;;;;;;;;;;;;;;9.20;49.60;100791.06;4965266;27;97928;-69
2023/10/18 05:27:24;;;;;;;;;;;;;;;9.19;50.31;100786.72;5016829;27;98663;-64
2023/10/18 05:29:52;;;;;;;;;;;;;;;9.19;49.45;100785.91;4982898;27;98635;-64
2023/10/18 05:32:38;;;;;;;;;;;;;;;9.20;49.89;100780.28;4971714;27;98195;-64
2023/10/18 05:35:21;;;;;;;;;;;;;;;9.20;49.61;100787.56;4976956;27;98440;-64
2023/10/18 05:37:50;;;;;;;;;;;;;;;9.20;49.62;100793.75;4998279;27;98407;-64
2023/10/18 05:43:05;;;;;;;;;;;;;;;9.22;49.36;100799.66;4987731;27;98938;-69
2023/10/18 05:45:33;;;;;;;;;;;;;;;9.23;49.74;100797.78;5002534;27;99153;-64
2023/10/18 05:48:17;;;;;;;;;;;;;;;9.23;49.60;100795.91;5005078;27;99360;-69
2023/10/18 05:50:49;;;;;;;;;;;;;;;9.26;49.82;100799.97;4991211;27;97955;-63
2023/10/18 05:53:18;;;;;;;;;;;;;;;9.28;49.73;100795.19;4979783;27;98254;-69
2023/10/18 05:55:53;;;;;;;;;;;;;;;9.29;50.11;100794.13;5000181;27;98483;-69
2023/10/18 05:58:25;;;;;;;;;;;;;;;9.31;49.47;100795.50;4995805;27;99749;-71
2023/10/18 06:00:58;;;;;;;;;;;;;;;9.34;49.60;100797.66;4989551;27;100434;-69
2023/10/18 06:03:27;;;;;;;;;;;;;;;9.39;49.63;100798.78;4991014;27;98702;-69
2023/10/18 06:05:55;;;;;;;;;;;;;;;9.42;49.78;100792.91;5013754;27;99747;-69
2023/10/18 06:08:25;;;;;;;;;;;;;;;9.45;49.76;100797.78;4979971;27;98033;-64
2023/10/18 06:11:00;;;;;;;;;;;;;;;9.50;49.42;100795.16;4997157;27;98463;-69
2023/10/18 06:13:27;;;;;;;;;;;;;;;9.54;49.67;100791.69;4995509;27;98473;-64
2023/10/18 06:15:58;;;;;;;;;;;;;;;9.58;49.30;100790.13;4972533;27;98463;-64
2023/10/18 06:18:37;;;;;;;;;;;;;;;9.65;49.81;100798.00;5002841;27;99871;-69
2023/10/18 06:21:12;;;;;;;;;;;;;;;9.70;49.58;100798.06;5016321;27;98521;-64
2023/10/18 06:23:38;;;;;;;;;;;;;;;9.75;49.46;100795.44;5000060;27;98489;-64
2023/10/18 06:26:27;;;;;;;;;;;;;;;9.80;49.49;100792.78;4995390;27;99785;-64
2023/10/18 06:29:00;;;;;;;;;;;;;;;9.85;49.47;100786.63;4976052;27;98442;-64
2023/10/18 06:31:28;;;;;;;;;;;;;;;9.92;48.99;100799.91;5004640;27;99858;-64
2023/10/18 06:34:03;;;;;;;;;;;;;;;9.97;49.42;100794.56;5001987;27;101099;-63
2023/10/18 06:36:32;;;;;;;;;;;;;;;10.03;49.23;100798.94;4997993;27;101529;-69
2023/10/18 06:38:58;;;;;;;;;;;;;;;10.09;48.84;100796.00;5012016;27;100029;-69
2023/10/18 06:41:29;;;;;;;;;;;;;;;10.17;48.77;100794.75;4962469;27;99980;-69
2023/10/18 06:43:58;;;;;;;;;;;;;;;10.21;49.06;100798.53;5000653;27;98380;-69
2023/10/18 06:46:26;;;;;;;;;;;;;;;10.27;49.09;100791.38;5015576;27;99185;-69
2023/10/18 06:48:55;;;;;;;;;;;;;;;10.35;48.81;100788.19;4999131;27;97998;-69
2023/10/18 06:51:43;;;;;;;;;;;;;;;10.42;48.66;100783.41;4976772;27;98177;-69
2023/10/18 06:54:14;;;;;;;;;;;;;;;10.52;49.28;100782.66;4997539;27;98412;-64
2023/10/18 06:56:45;;;;;;;;;;;;;;;10.59;48.68;100777.03;4983795;27;98392;-69
2023/10/18 06:59:14;;;;;;;;;;;;;;;10.65;49.07;100779.53;4988726;27;97992;-69
2023/10/18 07:01:53;;;;;;;;;;;;;;;10.74;48.79;100771.75;4981408;27;100734;-69
2023/10/18 07:04:28;;;;;;;;;;;;;;;10.82;48.66;100772.06;4969448;27;97997;-64
2023/10/18 07:06:55;;;;;;;;;;;;;;;10.90;48.59;100756.47;4997966;27;99517;-70
2023/10/18 07:09:31;;;;;;;;;;;;;;;11.00;48.91;100759.19;4982914;27;98944;-70
2023/10/18 07:11:57;;;;;;;;;;;;;;;11.11;48.85;100751.97;4985600;27;98147;-70
2023/10/18 07:14:26;;;;;;;;;;;;;;;11.18;48.85;100747.94;5003654;27;98159;-70
2023/10/18 07:17:00;;;;;;;;;;;;;;;11.27;48.65;100746.34;4981062;27;98462;-64
2023/10/18 07:19:29;;;;;;;;;;;;;;;11.38;48.55;100749.91;4988890;27;98157;-70
2023/10/18 07:21:58;;;;;;;;;;;;;;;11.48;48.60;100739.13;4986367;27;99088;-70
2023/10/18 07:24:32;;;;;;;;;;;;;;;11.59;48.53;100739.94;5013812;27;99177;-64
2023/10/18 07:27:03;;;;;;;;;;;;;;;11.70;48.47;100740.78;4981957;27;99068;-70
2023/10/18 07:29:31;;;;;;;;;;;;;;;11.83;48.53;100740.31;4970468;27;98123;-64
2023/10/18 07:31:59;;;;;;;;;;;;;;;11.96;48.16;100742.47;4969248;27;98167;-70
2023/10/18 07:34:28;;;;;;;;;;;;;;;12.10;48.26;100736.50;4997388;27;98199;-64
2023/10/18 07:36:55;;;;;;;;;;;;;;;12.25;48.20;100731.09;4998695;27;98188;-70
2023/10/18 07:39:24;;;;;;;;;;;;;;;12.41;48.12;100731.91;4983522;27;98470;-64
2023/10/18 07:41:55;;;;;;;;;;;;;;;12.58;48.15;100734.31;5000174;27;98992;-70
2023/10/18 07:44:21;;;;;;;;;;;;;;;12.78;48.04;100731.56;4995175;27;98696;-70
2023/10/18 07:46:47;;;;;;;;;;;;;;;13.12;47.50;100731.66;4983124;27;99423;-70
2023/10/18 07:49:16;;;;;;;;;;;;;;;13.37;47.41;100728.06;4962989;27;117142;-70
2023/10/18 07:51:49;;;;;;;;;;;;;;;13.74;47.10;100719.44;5016937;27;98061;-64
2023/10/18 07:54:16;;;;;;;;;;;;;;;14.06;46.91;100723.50;4980710;27;98406;-64
2023/10/18 07:56:49;;;;;;;;;;;;;;;14.35;46.84;100714.59;4983672;27;98394;-70
2023/10/18 07:59:28;;;;;;;;;;;;;;;14.56;46.62;100709.78;4987218;27;98059;-64
2023/10/18 08:04:36;;;;;;;;;;;;;;;16.10;45.45;100703.88;5012969;27;98214;-70
2023/10/18 08:07:03;;;;;;;;;;;;;;;17.22;44.60;100695.47;4998014;27;98178;-64
2023/10/18 08:09:30;;;;;;;;;;;;;;;17.82;44.61;100693.25;4986194;27;98181;-65
2023/10/18 08:11:56;;;;;;;;;;;;;;;18.27;44.62;100685.00;4995897;27;98066;-70
2023/10/18 08:14:25;;;;;;;;;;;;;;;18.89;44.08;100670.50;4968719;27;98603;-71
2023/10/18 08:16:58;;;;;;;;;;;;;;;19.44;43.95;100678.09;4986421;27;98132;-70
2023/10/18 08:19:24;;;;;;;;;;;;;;;19.72;44.18;100686.81;4997167;27;98130;-70
2023/10/18 08:24:35;;;;;;;;;;;;;;;21.14;43.43;100682.09;5001935;27;98444;-66
2023/10/18 08:27:09;;;;;;;;;;;;;;;22.57;42.30;100673.47;5000670;27;102197;-70
2023/10/18 08:29:36;;;;;;;;;;;;;;;24.22;41.45;100682.63;4971234;27;98258;-70
2023/10/18 08:32:14;;;;;;;;;;;;;;;25.63;40.80;100683.53;4996661;27;99553;-71
2023/10/18 08:34:42;;;;;;;;;;;;;;;26.96;40.54;100685.84;4999391;27;98311;-66
2023/10/18 08:37:13;;;;;;;;;;;;;;;28.23;39.69;100674.72;4966921;27;99505;-68
2023/10/18 08:39:52;;;;;;;;;;;;;;;29.55;39.54;100680.34;4979213;27;98261;-69
2023/10/18 08:42:22;;;;;;;;;;;;;;;30.22;39.59;100681.72;4993494;27;101064;-72
2023/10/18 08:44:55;;;;;;;;;;;;;;;30.69;39.83;100683.28;4982751;27;99427;-69
2023/10/18 08:47:29;;;;;;;;;;;;;;;31.25;40.22;100678.81;4965686;27;98092;-70
2023/10/18 08:49:56;;;;;;;;;;;;;;;32.00;40.29;100664.53;4984580;27;98187;-70
2023/10/18 08:52:24;;;;;;;;;;;;;;;32.24;40.76;100665.53;4983105;27;100275;-70
2023/10/18 08:54:51;;;;;;;;;;;;;;;32.90;40.22;100658.19;5011889;27;99426;-70
2023/10/18 08:57:34;;;;;;;;;;;;;;;33.44;40.01;100649.94;4965616;27;98330;-65
2023/10/18 09:02:57;;;;;;;;;;;;;;;33.90;40.30;100649.31;4934737;27;98566;-70
2023/10/18 09:05:23;;;;;;;;;;;;;;;34.27;40.05;100652.34;4967304;27;98207;-70
2023/10/18 09:07:54;;;;;;;;;;;;;;;34.74;39.86;100646.75;5002815;27;98346;-65
2023/10/18 09:15:54;;;;;;;;;;;;;;;37.26;38.69;100629.91;4977257;27;98117;-71
2023/10/18 09:18:30;;;;;;;;;;;;;;;37.81;38.00;100627.81;4965727;27;98335;-66
2023/10/18 09:21:07;;;;;;;;;;;;;;;38.58;37.49;100633.28;4997940;27;98075;-66
2023/10/18 09:23:35;;;;;;;;;;;;;;;39.76;36.75;100627.63;4948052;27;100278;-70
2023/10/18 09:26:18;;;;;;;;;;;;;;;39.89;37.01;100624.69;4963715;28;98182;-66
2023/10/18 09:28:46;;;;;;;;;;;;;;;39.57;37.69;100609.03;4972198;27;98158;-70
2023/10/18 09:31:20;;;;;;;;;;;;;;;39.93;37.54;100610.41;4988340;27;98283;-66
2023/10/18 09:33:50;;;;;;;;;;;;;;;40.40;37.50;100600.78;4973006;27;98494;-66
2023/10/18 09:36:20;;;;;;;;;;;;;;;41.28;36.96;100600.84;5005282;27;98629;-71
2023/10/18 09:38:48;;;;;;;;;;;;;;;41.43;37.29;100603.78;4986810;27;98366;-71
2023/10/18 09:41:17;;;;;;;;;;;;;;;41.98;36.98;100599.91;4964836;27;98321;-66
2023/10/18 09:43:47;;;;;;;;;;;;;;;42.62;36.32;100588.84;5001943;27;99620;-66
2023/10/18 09:46:13;;;;;;;;;;;;;;;43.24;36.04;100592.78;4966207;27;101445;-71
2023/10/18 09:48:44;;;;;;;;;;;;;;;42.97;36.40;100587.41;4986759;27;98416;-71
2023/10/18 09:51:15;;;;;;;;;;;;;;;43.31;36.38;100583.88;4983331;27;98227;-71
2023/10/18 09:53:48;;;;;;;;;;;;;;;44.47;35.39;100584.41;4967354;27;101266;-66
2023/10/18 09:56:26;;;;;;;;;;;;;;;45.19;35.24;100587.16;4968028;27;98780;-66
2023/10/18 09:59:05;;;;;;;;;;;;;;;44.94;35.55;100573.75;4970381;27;100795;-67
2023/10/18 10:02:19;;;;;;;;;;;;;;;45.35;35.13;100567.88;4982208;27;98085;-70
2023/10/18 10:04:21;;;;;;;;;;;;;;;45.42;35.29;100556.03;4965545;27;98566;-71
2023/10/18 10:06:52;;;;;;;;;;;;;;;45.64;35.41;100555.41;4948191;27;97961;-66
2023/10/18 10:09:19;;;;;;;;;;;;;;;46.34;34.65;100553.88;4968380;27;98108;-73
2023/10/18 10:11:47;;;;;;;;;;;;;;;46.85;34.65;100554.72;4971755;27;98227;-72
2023/10/18 10:14:18;;;;;;;;;;;;;;;47.32;34.21;100552.91;4983627;27;98963;-66
2023/10/18 10:16:57;;;;;;;;;;;;;;;47.81;33.99;100544.72;4985981;27;98442;-67
2023/10/18 10:19:28;;;;;;;;;;;;;;;48.30;33.75;100542.13;5002686;27;98123;-71
2023/10/18 10:22:06;;;;;;;;;;;;;;;48.92;33.44;100541.69;5003428;27;98243;-67
2023/10/18 10:24:43;;;;;;;;;;;;;;;49.25;33.34;100519.78;4989937;27;98448;-67
2023/10/18 10:27:41;;;;;;;;;;;;;;;49.19;33.27;100517.00;5001468;27;98635;-66
2023/10/18 10:30:03;;;;;;;;;;;;;;;49.36;33.65;100508.97;4997986;27;98678;-71
2023/10/18 10:32:31;;;;;;;;;;;;;;;49.26;33.65;100504.97;4984997;27;98580;-67
2023/10/18 10:35:17;;;;;;;;;;;;;;;49.18;33.70;100506.88;5001271;27;99875;-66
2023/10/18 10:37:51;;;;;;;;;;;;;;;49.13;33.62;100499.91;5016249;27;98990;-66
2023/10/18 10:43:02;;;;;;;;;;;;;;;47.74;34.64;100482.47;5002088;27;97878;-66
2023/10/18 10:50:50;;;;;;;;;;;;;;;44.78;36.99;100467.19;4998241;27;98764;-66
2023/10/18 10:53:36;;;;;;;;;;;;;;;43.96;37.48;100463.81;4983733;27;98612;-66
2023/10/18 10:56:27;;;;;;;;;;;;;;;43.10;38.28;100458.31;4998745;27;98479;-66
2023/10/18 10:59:02;;;;;;;;;;;;;;;42.42;38.55;100459.25;5013706;27;98227;-70
2023/10/18 11:04:46;;;;;;;;;;;;;;;41.27;39.18;100449.47;5012503;27;98307;-71
2023/10/18 11:07:21;;;;;;;;;;;;;;;40.71;39.27;100443.28;4999488;27;98622;-70
2023/10/18 11:09:50;;;;;;;;;;;;;;;40.13;39.96;100438.72;4972286;27;98076;-66
2023/10/18 11:12:20;;;;;;;;;;;;;;;39.73;39.89;100438.84;5000990;27;98378;-70
2023/10/18 11:14:50;;;;;;;;;;;;;;;39.28;39.98;100431.88;4985209;27;98557;-70
2023/10/18 11:17:17;;;;;;;;;;;;;;;38.54;40.76;100434.38;5013322;27;98346;-65
2023/10/18 11:19:44;;;;;;;;;;;;;;;37.74;41.52;100426.41;5001998;27;99603;-70
2023/10/18 11:22:19;;;;;;;;;;;;;;;37.11;41.54;100418.91;5001801;27;97946;-66
2023/10/18 11:24:49;;;;;;;;;;;;;;;36.44;41.92;100418.94;4973154;27;98449;-70
2023/10/18 11:27:17;;;;;;;;;;;;;;;35.70;42.69;100414.19;4999365;27;98520;-70
2023/10/18 11:29:45;;;;;;;;;;;;;;;35.14;42.76;100412.38;5004943;27;98154;-65
2023/10/18 11:32:17;;;;;;;;;;;;;;;34.64;42.83;100413.50;5003179;27;98434;-70
2023/10/18 11:34:45;;;;;;;;;;;;;;;34.19;43.25;100402.81;5000849;27;102911;-69
2023/10/18 11:37:58;;;;;;;;;;;;;;;33.77;43.21;100402.44;5002726;27;98453;-69
2023/10/18 11:40:05;;;;;;;;;;;;;;;33.31;43.74;100394.84;4980342;27;99012;-69
2023/10/18 11:43:08;;;;;;;;;;;;;;;32.79;43.99;100392.44;4970780;27;98370;-65
2023/10/18 11:45:36;;;;;;;;;;;;;;;32.36;43.72;100382.63;5001830;27;98330;-70
2023/10/18 11:48:09;;;;;;;;;;;;;;;31.97;43.92;100381.13;5002840;27;99291;-71
2023/10/18 11:50:42;;;;;;;;;;;;;;;31.57;44.35;100379.16;5003042;27;98317;-65
2023/10/18 11:53:12;;;;;;;;;;;;;;;31.02;44.58;100375.22;5020112;27;98220;-70
2023/10/18 11:55:55;;;;;;;;;;;;;;;30.52;44.60;100376.28;5002311;27;99828;-65
2023/10/18 11:58:23;;;;;;;;;;;;;;;29.98;44.95;100363.78;4985106;27;98968;-68
2023/10/18 12:01:00;;;;;;;;;;;;;;;29.46;45.33;100360.69;4997819;27;98166;-69
2023/10/18 12:03:27;;;;;;;;;;;;;;;28.97;45.63;100362.25;4999775;27;98165;-69
2023/10/18 12:06:02;;;;;;;;;;;;;;;28.51;45.88;100358.22;4986302;27;99497;-69
2023/10/18 12:08:33;;;;;;;;;;;;;;;28.06;45.86;100352.09;4980483;27;98221;-65
2023/10/18 12:11:04;;;;;;;;;;;;;;;27.66;45.91;100345.50;4964050;27;99352;-65
2023/10/18 12:13:32;;;;;;;;;;;;;;;27.29;46.03;100348.41;5003569;27;97684;-69
2023/10/18 12:16:00;;;;;;;;;;;;;;;26.94;46.24;100335.06;4982387;27;99684;-70
2023/10/18 12:18:29;;;;;;;;;;;;;;;26.57;46.29;100338.66;4970162;27;98376;-69
2023/10/18 12:20:55;;;;;;;;;;;;;;;26.24;46.31;100335.88;5014312;27;98236;-69
2023/10/18 12:23:22;;;;;;;;;;;;;;;25.91;46.53;100337.44;4966664;27;98385;-69
2023/10/18 12:25:49;;;;;;;;;;;;;;;25.58;46.40;100336.13;4999405;27;98067;-70
2023/10/18 12:28:28;;;;;;;;;;;;;;;25.32;46.69;100330.66;4998904;27;98489;-70
2023/10/18 12:30:55;;;;;;;;;;;;;;;25.11;46.44;100328.31;5001830;27;98191;-65
2023/10/18 12:33:27;;;;;;;;;;;;;;;24.90;46.38;100323.22;5012176;27;100858;-70
2023/10/18 12:35:56;;;;;;;;;;;;;;;24.67;46.30;100318.47;4985633;27;99376;-70
2023/10/18 12:38:31;;;;;;;;;;;;;;;24.50;46.53;100313.47;4997103;27;98112;-65
2023/10/18 12:41:07;;;;;;;;;;;;;;;24.33;46.41;100311.13;4996650;27;98109;-65
2023/10/18 12:43:39;;;;;;;;;;;;;;;24.14;46.61;100304.47;4985738;27;99444;-70
2023/10/18 12:46:06;;;;;;;;;;;;;;;23.98;46.55;100306.50;4964686;27;98127;-70
2023/10/18 12:48:35;;;;;;;;;;;;;;;23.81;46.51;100304.94;4984877;27;98311;-64
2023/10/18 12:51:08;;;;;;;;;;;;;;;23.64;46.31;100297.88;4985401;27;98435;-65
2023/10/18 12:53:43;;;;;;;;;;;;;;;23.45;46.56;100292.34;4984677;27;100890;-64
2023/10/18 13:04:08;;;;;;;;;;;;;;;23.02;46.62;100294.06;4983172;27;98873;-70
2023/10/18 13:06:35;;;;;;;;;;;;;;;22.93;46.34;100283.28;4981963;27;98170;-70
2023/10/18 13:09:15;;;;;;;;;;;;;;;22.84;46.58;100285.38;4968963;27;98872;-65
2023/10/18 13:11:44;;;;;;;;;;;;;;;22.73;46.34;100279.59;5001280;27;99939;-65
2023/10/18 13:14:14;;;;;;;;;;;;;;;22.59;46.69;100279.22;4987571;27;98479;-70
2023/10/18 13:16:44;;;;;;;;;;;;;;;22.43;46.57;100272.91;4984964;27;99344;-65
2023/10/18 13:19:14;;;;;;;;;;;;;;;22.28;46.52;100274.47;4995923;27;98282;-70
2023/10/18 13:21:40;;;;;;;;;;;;;;;22.12;46.75;100268.91;4985648;27;98387;-70
2023/10/18 13:26:52;;;;;;;;;;;;;;;21.84;46.72;100260.66;4986512;27;98131;-65
2023/10/18 13:31:50;;;;;;;;;;;;;;;21.58;46.76;100252.09;5013228;27;98205;-65
2023/10/18 13:34:19;;;;;;;;;;;;;;;21.46;46.75;100258.38;4998701;27;98004;-65
2023/10/18 13:36:49;;;;;;;;;;;;;;;21.31;46.88;100252.44;4995861;27;98674;-65
2023/10/18 13:39:19;;;;;;;;;;;;;;;21.22;46.89;100254.50;5020832;27;99273;-65
2023/10/18 13:41:46;;;;;;;;;;;;;;;21.11;46.72;100236.13;4997542;27;98708;-70
2023/10/18 13:44:21;;;;;;;;;;;;;;;21.00;46.69;100244.00;4986402;27;97950;-65
2023/10/18 13:46:57;;;;;;;;;;;;;;;20.89;46.70;100242.84;4986685;27;98115;-70
2023/10/18 13:49:23;;;;;;;;;;;;;;;20.77;46.82;100240.91;4968526;27;99353;-73
2023/10/18 13:51:50;;;;;;;;;;;;;;;20.68;46.86;100238.28;5000272;27;98270;-72
2023/10/18 13:54:18;;;;;;;;;;;;;;;20.59;46.78;100235.66;4992193;27;98991;-70
2023/10/18 13:56:44;;;;;;;;;;;;;;;20.49;46.78;100235.28;5005209;27;98117;-71
2023/10/18 13:59:11;;;;;;;;;;;;;;;20.42;46.57;100241.28;4998333;27;98544;-71
2023/10/18 14:01:38;;;;;;;;;;;;;;;20.34;46.82;100236.69;5016801;27;98080;-71